Burns, OR (97720)

12:11 AM PDT on September 03, 2014 (GMT -0700)
Burns Municipal | Change Station
CLOSE
Current Station
Airport
Location: Burns,
Elevation: 4170 ft
Nearby Weather Stations

Elev 4170 ft 43.60 °N, 118.96 °W | Updated 18 minutes ago

Clear
Clear
57 °F
Feels Like 57 °F
N
18
Wind Variable Wind from West

Today
High -- | Low -- °F
--% Chance of Precip.
Yesterday
High -- | Low -- °F
Precip. -- in
6:21 AM 7:26 PM
First Quarter, 59% visible
Pressure 29.81 in
Visibility 10.0 miles
Clouds Clear
Dew Point 41 °F
Humidity 55%
Rainfall 0.00 in
Snow Depth Not available.
UV 0 out of 12
Pollen 5.40 out of 12
Air Quality Not available.
Flu Activity Not available.
METAR KBNO 030653Z AUTO 28016KT 10SM CLR 14/05 A2990 RMK AO2 SLP093 T01390050

More Conditions Fewer Conditions

Pressure 29.81 in
Visibility 10.0 miles
Clouds Clear
Dew Point 41 °F
Humidity 55%
Rainfall 0.00 in
Snow Depth Not available.
UV 0 out of 12
Pollen 5.40 out of 12
Air Quality Not available.
Flu Activity Not available.
METAR KBNO 030653Z AUTO 28016KT 10SM CLR 14/05 A2990 RMK AO2 SLP093 T01390050

More Conditions Fewer Conditions

10-Day Weather Forecast

Almanac

Astronomy

Sep. 03, 2014 Rise Set
Actual Time 6:21 AM PDT 7:26 PM PDT
Civil Twilight 5:51 AM PDT 7:55 PM PDT
Nautical Twilight 5:16 AM PDT 8:30 PM PDT
Astronomical Twilight 4:39 AM PDT 9:07 PM PDT
Moon 3:19 PM PDT 12:13 AM PDT
Length of Visible Light 14h 04m
Length of Day
13h 05m
Tomorrow will be 2m 53s shorter.
First Quarter, 59% of the Moon is Illuminated
Today
First Quarter
Sep 8
Full
Sep 15
Last Quarter
Sep 24
New
Oct 1
First Quarter

Today's Extremes

State Highs State Lows

Community

WunderPhotos

Upload Photos

1,749,888 photos uploaded!

Nearby

Snow Depth

Station Depth Elevation
Rock Springs 0 in 5550 ft
Lake Creek R.S. 0 in 5200 ft
Snow Mountain 0 in 6220 ft
Blue Mountain Spring 0 in 5900 ft
Starr Ridge 0 in 5300 ft

Earthquake Activity

City Distance Mag. Time & Date
No recent earthquake activity has been reported nearby.
Minimum magnitude displayed is 2.5.

Coastal Water Temperatures

Place Temperature
No Stations Reporting

Nearby Weather Stations